createdAt,value
2022-11-29T00:01:32.383Z,13.30
2022-11-29T00:04:01.146Z,12.38
2022-11-29T00:06:29.660Z,13.80
2022-11-29T00:08:58.068Z,13.73
2022-11-29T00:11:26.916Z,12.77
2022-11-29T00:13:53.318Z,12.30
2022-11-29T00:16:19.832Z,13.55
2022-11-29T00:18:48.834Z,14.57
2022-11-29T00:21:16.640Z,13.43
2022-11-29T00:23:43.094Z,13.63
2022-11-29T00:26:09.589Z,13.55
2022-11-29T00:28:36.993Z,13.48
2022-11-29T00:31:13.983Z,13.38
2022-11-29T00:33:40.569Z,12.80
2022-11-29T00:36:07.747Z,13.13
2022-11-29T00:38:35.610Z,14.27
2022-11-29T00:41:02.046Z,13.15
2022-11-29T00:43:28.513Z,13.10
2022-11-29T00:45:55.319Z,14.00
2022-11-29T00:48:22.005Z,13.32
2022-11-29T00:50:48.615Z,13.10
2022-11-29T00:53:15.188Z,13.20
2022-11-29T00:55:44.127Z,14.05
2022-11-29T00:58:10.965Z,13.13
2022-11-29T01:00:37.521Z,13.43
2022-11-29T01:03:04.066Z,13.43
2022-11-29T01:05:30.795Z,12.40
2022-11-29T01:07:57.388Z,13.27
2022-11-29T01:10:24.221Z,13.00
2022-11-29T01:12:51.984Z,13.38
2022-11-29T01:15:19.495Z,15.88
2022-11-29T01:17:45.912Z,13.23
2022-11-29T01:20:13.522Z,14.70
2022-11-29T01:22:40.445Z,12.10
2022-11-29T01:25:08.134Z,13.20
2022-11-29T01:27:35.013Z,13.90
2022-11-29T01:30:04.153Z,13.65
2022-11-29T01:32:31.116Z,13.30
2022-11-29T01:34:57.657Z,14.90
2022-11-29T01:37:24.194Z,13.20
2022-11-29T01:39:50.681Z,13.95
2022-11-29T01:42:17.082Z,13.85
2022-11-29T01:45:19.391Z,12.95
2022-11-29T01:47:47.515Z,14.38
2022-11-29T01:50:14.510Z,14.48
2022-11-29T01:52:42.074Z,13.18
2022-11-29T01:55:09.381Z,13.60
2022-11-29T01:57:39.418Z,14.25
2022-11-29T02:00:09.821Z,12.18
2022-11-29T02:02:42.779Z,12.90
2022-11-29T02:05:12.177Z,13.57
2022-11-29T02:07:38.810Z,12.90
2022-11-29T02:10:07.510Z,13.48
2022-11-29T02:12:42.735Z,13.13
2022-11-29T02:15:21.571Z,13.55
2022-11-29T02:18:05.069Z,13.77
2022-11-29T02:21:02.653Z,13.60
2022-11-29T02:23:58.974Z,14.52
2022-11-29T02:26:54.597Z,12.90
2022-11-29T02:29:46.841Z,12.90
2022-11-29T02:32:48.801Z,13.10
2022-11-29T02:35:30.462Z,12.73
2022-11-29T02:38:13.688Z,14.43
2022-11-29T02:40:56.162Z,12.37
2022-11-29T02:43:42.347Z,13.18
2022-11-29T02:46:26.300Z,13.15
2022-11-29T02:49:04.541Z,13.23
2022-11-29T02:51:41.126Z,12.57
2022-11-29T02:54:15.119Z,12.35
2022-11-29T02:56:46.583Z,13.93
2022-11-29T02:59:21.365Z,13.40
2022-11-29T03:01:57.799Z,13.90
2022-11-29T03:04:32.610Z,13.25
2022-11-29T03:07:05.986Z,12.77
2022-11-29T03:09:38.815Z,13.43
2022-11-29T03:12:18.348Z,13.57
2022-11-29T03:14:57.480Z,12.68
2022-11-29T03:17:32.510Z,13.15
2022-11-29T03:20:21.897Z,13.75
2022-11-29T03:23:06.930Z,13.20
2022-11-29T03:25:38.706Z,13.20
2022-11-29T03:28:11.261Z,13.75
2022-11-29T03:30:42.782Z,12.82
2022-11-29T03:33:16.251Z,13.77
2022-11-29T03:35:55.297Z,13.15
2022-11-29T03:38:28.230Z,13.43
2022-11-29T03:41:04.101Z,12.80
2022-11-29T03:43:39.255Z,13.93
2022-11-29T03:46:10.924Z,14.35
2022-11-29T03:48:43.983Z,12.80
2022-11-29T03:51:16.085Z,12.45
2022-11-29T03:53:49.060Z,13.98
2022-11-29T03:56:27.459Z,12.70
2022-11-29T03:59:03.754Z,13.43
2022-11-29T04:02:02.340Z,12.90
2022-11-29T04:05:07.260Z,12.35
2022-11-29T04:07:49.588Z,15.45
2022-11-29T04:10:35.545Z,12.50
2022-11-29T04:13:33.930Z,13.40
2022-11-29T04:16:26.718Z,13.23
2022-11-29T04:19:23.630Z,15.23
2022-11-29T04:22:11.198Z,14.15
2022-11-29T04:25:36.102Z,13.38
2022-11-29T04:28:25.219Z,12.68
2022-11-29T04:31:00.799Z,12.60
2022-11-29T04:33:57.028Z,13.93
2022-11-29T04:36:41.950Z,13.10
2022-11-29T04:39:26.329Z,13.95
2022-11-29T04:42:14.652Z,13.57
2022-11-29T04:44:55.322Z,13.00
2022-11-29T04:47:43.949Z,12.25
2022-11-29T04:50:25.455Z,13.20
2022-11-29T04:53:15.223Z,14.35
2022-11-29T04:55:50.999Z,13.73
2022-11-29T04:58:29.873Z,13.38
2022-11-29T05:01:03.894Z,13.82
2022-11-29T05:03:39.593Z,13.35
2022-11-29T05:06:19.613Z,13.02
2022-11-29T05:08:51.207Z,13.43
2022-11-29T05:11:26.992Z,14.05
2022-11-29T05:14:00.945Z,14.10
2022-11-29T05:19:35.244Z,13.20
2022-11-29T05:24:46.843Z,13.90
2022-11-29T05:27:22.996Z,14.70
2022-11-29T05:29:58.264Z,16.17
2022-11-29T05:32:30.839Z,14.68
2022-11-29T05:35:13.628Z,14.60
2022-11-29T05:37:45.783Z,16.48
2022-11-29T05:40:35.767Z,13.60
2022-11-29T05:43:12.593Z,14.32
2022-11-29T05:45:47.648Z,15.90
2022-11-29T05:48:24.275Z,15.68
2022-11-29T05:50:59.607Z,15.05
2022-11-29T05:53:33.951Z,14.55
2022-11-29T05:56:09.186Z,15.07
2022-11-29T05:58:47.433Z,14.85
2022-11-29T06:01:21.644Z,13.73
2022-11-29T06:03:57.951Z,14.75
2022-11-29T06:06:32.652Z,15.20
2022-11-29T06:09:04.806Z,17.92
2022-11-29T06:11:36.147Z,15.60
2022-11-29T06:14:07.444Z,15.23
2022-11-29T06:17:00.436Z,15.38
2022-11-29T06:19:52.933Z,13.93
2022-11-29T06:22:39.433Z,15.90
2022-11-29T06:25:27.683Z,16.15
2022-11-29T06:28:08.973Z,14.40
2022-11-29T06:30:47.955Z,14.20
2022-11-29T06:33:22.504Z,15.85
2022-11-29T06:35:57.522Z,14.02
2022-11-29T06:38:27.154Z,15.90
2022-11-29T06:41:00.136Z,15.52
2022-11-29T06:43:29.365Z,15.98
2022-11-29T06:46:03.853Z,16.42
2022-11-29T06:48:39.908Z,14.65
2022-11-29T06:51:10.682Z,15.75
2022-11-29T06:53:44.996Z,16.60
2022-11-29T06:56:21.342Z,16.77
2022-11-29T06:58:55.554Z,16.08
2022-11-29T07:01:35.610Z,15.10
2022-11-29T07:04:23.052Z,15.50
2022-11-29T07:06:49.914Z,16.40
2022-11-29T07:09:18.894Z,15.57
2022-11-29T07:11:46.825Z,15.45
2022-11-29T07:14:13.755Z,15.18
2022-11-29T07:16:53.155Z,16.58
2022-11-29T07:19:30.852Z,15.05
2022-11-29T07:22:05.155Z,14.90
2022-11-29T07:24:47.588Z,16.23
2022-11-29T07:27:19.802Z,16.50
2022-11-29T07:30:02.646Z,16.77
2022-11-29T07:32:42.093Z,16.27
2022-11-29T07:35:16.967Z,15.60
2022-11-29T07:37:56.985Z,16.02
2022-11-29T07:40:35.931Z,16.90
2022-11-29T07:43:22.388Z,16.50
2022-11-29T07:45:50.307Z,16.67
2022-11-29T07:48:17.432Z,16.52
2022-11-29T07:50:45.444Z,16.40
2022-11-29T07:53:16.151Z,16.95
2022-11-29T07:55:42.912Z,15.70
2022-11-29T07:58:10.989Z,16.35
2022-11-29T08:00:37.519Z,18.05
2022-11-29T08:03:04.581Z,17.38
2022-11-29T08:05:31.323Z,16.92
2022-11-29T08:07:59.747Z,16.27
2022-11-29T08:10:26.386Z,16.13
2022-11-29T08:12:53.116Z,16.02
2022-11-29T08:15:22.187Z,15.85
2022-11-29T08:17:49.235Z,16.38
2022-11-29T08:20:16.219Z,15.82
2022-11-29T08:22:43.028Z,17.13
2022-11-29T08:25:11.367Z,17.30
2022-11-29T08:27:38.217Z,16.25
2022-11-29T08:30:06.481Z,16.05
2022-11-29T08:32:33.627Z,16.83
2022-11-29T08:35:00.117Z,17.33
2022-11-29T08:37:26.560Z,15.77
2022-11-29T08:39:52.982Z,17.17
2022-11-29T08:42:20.764Z,17.25
2022-11-29T08:44:47.393Z,17.75
2022-11-29T08:47:14.027Z,17.13
2022-11-29T08:49:40.517Z,17.65
2022-11-29T08:52:06.926Z,17.20
2022-11-29T08:54:33.322Z,17.27
2022-11-29T08:57:37.430Z,16.30
2022-11-29T08:59:47.418Z,16.98
2022-11-29T09:02:13.909Z,17.77
2022-11-29T09:04:40.322Z,18.48
2022-11-29T09:07:06.839Z,16.95
2022-11-29T09:09:33.409Z,19.00
2022-11-29T09:11:59.795Z,18.38
2022-11-29T09:14:26.575Z,18.70
2022-11-29T09:16:54.416Z,18.30
2022-11-29T09:19:20.864Z,19.35
2022-11-29T09:21:47.276Z,18.30
2022-11-29T09:24:13.962Z,18.70
2022-11-29T09:26:40.350Z,17.15
2022-11-29T09:29:06.959Z,17.75
2022-11-29T09:31:34.328Z,17.92
2022-11-29T09:34:02.208Z,19.63
2022-11-29T09:36:29.643Z,17.75
2022-11-29T09:38:56.623Z,17.60
2022-11-29T09:41:38.568Z,18.23
2022-11-29T09:44:14.414Z,18.70
2022-11-29T09:46:55.826Z,19.17
2022-11-29T09:49:50.120Z,19.60
2022-11-29T09:52:26.535Z,18.30
2022-11-29T09:55:01.398Z,19.00
2022-11-29T09:57:29.479Z,19.48
2022-11-29T09:59:59.086Z,18.10
2022-11-29T10:02:36.283Z,19.75
2022-11-29T10:05:09.866Z,19.25
2022-11-29T10:07:42.781Z,19.88
2022-11-29T10:10:16.965Z,15.33
2022-11-29T10:12:48.755Z,18.15
2022-11-29T10:15:19.681Z,18.85
2022-11-29T10:17:53.186Z,17.83
2022-11-29T10:20:24.226Z,19.67
2022-11-29T10:22:55.233Z,19.75
2022-11-29T10:25:25.644Z,21.08
2022-11-29T10:27:53.234Z,21.45
2022-11-29T10:30:21.369Z,20.45
2022-11-29T10:32:51.812Z,19.17
2022-11-29T10:35:21.577Z,21.58
2022-11-29T10:38:14.479Z,19.88
2022-11-29T10:40:38.998Z,21.48
2022-11-29T10:43:05.485Z,21.17
2022-11-29T10:45:34.742Z,21.13
2022-11-29T10:48:04.669Z,22.38
2022-11-29T10:50:35.224Z,23.10
2022-11-29T10:53:05.579Z,21.17
2022-11-29T10:55:39.975Z,21.45
2022-11-29T10:58:15.791Z,22.48
2022-11-29T11:00:50.279Z,21.13
2022-11-29T11:03:24.276Z,20.73
2022-11-29T11:06:01.690Z,21.95
2022-11-29T11:08:29.422Z,21.02
2022-11-29T11:11:01.240Z,22.35
2022-11-29T11:13:30.890Z,21.33
2022-11-29T11:15:59.319Z,23.60
2022-11-29T11:18:27.132Z,23.85
2022-11-29T11:20:56.506Z,21.52
2022-11-29T11:23:26.765Z,22.77
2022-11-29T11:25:59.001Z,24.13
2022-11-29T11:28:28.141Z,23.88
2022-11-29T11:30:57.182Z,24.70
2022-11-29T11:33:26.774Z,24.73
2022-11-29T11:36:07.385Z,25.15
2022-11-29T11:38:36.640Z,25.58
2022-11-29T11:41:07.319Z,26.17
2022-11-29T11:43:34.413Z,26.30
2022-11-29T11:46:01.026Z,26.17
2022-11-29T11:48:27.821Z,26.08
2022-11-29T11:50:55.973Z,25.98
2022-11-29T11:53:24.943Z,29.88
2022-11-29T11:55:59.178Z,29.27
2022-11-29T11:58:28.713Z,27.90
2022-11-29T12:01:05.261Z,25.63
2022-11-29T12:03:45.386Z,26.92
2022-11-29T12:06:39.302Z,26.70
2022-11-29T12:09:12.266Z,22.40
2022-11-29T12:11:47.723Z,26.13
2022-11-29T12:14:23.306Z,27.10
2022-11-29T12:16:55.119Z,26.48
2022-11-29T12:19:24.961Z,25.95
2022-11-29T12:21:58.417Z,24.75
2022-11-29T12:24:30.258Z,24.10
2022-11-29T12:27:03.971Z,26.38
2022-11-29T12:32:19.596Z,24.17
2022-11-29T12:35:00.340Z,30.30
2022-11-29T12:37:35.563Z,27.08
2022-11-29T12:40:06.413Z,25.17
2022-11-29T12:42:44.447Z,25.25
2022-11-29T12:45:34.332Z,25.65
2022-11-29T12:48:09.500Z,25.77
2022-11-29T12:50:45.283Z,24.50
2022-11-29T12:53:27.725Z,25.13
2022-11-29T12:56:04.759Z,23.63
2022-11-29T12:58:45.880Z,24.75
2022-11-29T13:01:23.046Z,23.38
2022-11-29T13:03:58.558Z,23.00
2022-11-29T13:06:31.414Z,23.88
2022-11-29T13:09:28.059Z,22.53
2022-11-29T13:11:58.221Z,24.40
2022-11-29T13:14:42.694Z,23.67
2022-11-29T13:17:25.894Z,23.90
2022-11-29T13:19:57.360Z,25.02
2022-11-29T13:22:28.711Z,24.00
2022-11-29T13:24:59.019Z,25.30
2022-11-29T13:27:29.779Z,26.85
2022-11-29T13:30:00.307Z,23.67
2022-11-29T13:32:35.927Z,25.58
2022-11-29T13:35:11.675Z,25.38
2022-11-29T13:37:45.072Z,26.15
2022-11-29T13:40:22.598Z,25.73
2022-11-29T13:42:57.870Z,25.35
2022-11-29T13:45:34.094Z,26.08
2022-11-29T13:48:24.951Z,27.42
2022-11-29T13:50:55.208Z,27.05
2022-11-29T13:53:23.823Z,28.17
2022-11-29T13:55:55.164Z,24.35
2022-11-29T13:58:34.968Z,26.50
2022-11-29T14:01:06.946Z,27.20
2022-11-29T14:03:36.282Z,27.05
2022-11-29T14:06:13.362Z,26.58
2022-11-29T14:09:17.149Z,29.77
2022-11-29T14:11:36.096Z,29.98
2022-11-29T14:14:05.866Z,28.08
2022-11-29T14:16:38.115Z,28.25
2022-11-29T14:19:19.860Z,27.08
2022-11-29T14:22:15.741Z,26.38
2022-11-29T14:24:43.410Z,27.10
2022-11-29T14:27:47.457Z,29.20
2022-11-29T14:30:49.170Z,28.17
2022-11-29T14:33:29.152Z,28.40
2022-11-29T14:36:19.803Z,26.63
2022-11-29T14:38:51.985Z,28.33
2022-11-29T14:41:28.585Z,26.30
2022-11-29T14:44:15.584Z,26.92
2022-11-29T14:46:42.669Z,26.92
2022-11-29T14:49:22.257Z,25.60
2022-11-29T14:52:16.057Z,25.98
2022-11-29T14:54:54.680Z,25.38
2022-11-29T14:57:53.339Z,26.10
2022-11-29T15:00:21.550Z,26.70
2022-11-29T15:02:50.532Z,25.42
2022-11-29T15:05:22.153Z,27.17
2022-11-29T15:07:56.562Z,25.75
2022-11-29T15:10:28.135Z,27.23
2022-11-29T15:12:55.652Z,26.00
2022-11-29T15:15:40.666Z,26.58
2022-11-29T15:18:30.152Z,25.52
2022-11-29T15:21:14.639Z,25.77
2022-11-29T15:23:41.887Z,26.17
2022-11-29T15:26:17.008Z,26.13
2022-11-29T15:28:43.710Z,27.63
2022-11-29T15:31:13.039Z,25.33
2022-11-29T15:33:41.679Z,28.15
2022-11-29T15:36:15.900Z,26.17
2022-11-29T15:38:44.104Z,26.23
2022-11-29T15:41:22.024Z,26.55
2022-11-29T15:43:52.932Z,26.50
2022-11-29T15:46:20.548Z,27.83
2022-11-29T15:48:47.000Z,27.85
2022-11-29T15:51:24.124Z,27.42
2022-11-29T15:54:11.247Z,29.20
2022-11-29T15:56:44.854Z,30.48
2022-11-29T15:59:18.651Z,28.48
2022-11-29T16:01:49.034Z,29.23
2022-11-29T16:04:20.005Z,28.73
2022-11-29T16:06:49.541Z,29.95
2022-11-29T16:09:32.431Z,30.25
2022-11-29T16:12:01.126Z,30.15
2022-11-29T16:14:27.694Z,29.52
2022-11-29T16:16:56.956Z,29.00
2022-11-29T16:19:29.803Z,31.38
2022-11-29T16:22:13.647Z,29.33
2022-11-29T16:24:46.267Z,30.80
2022-11-29T16:27:13.227Z,31.25
2022-11-29T16:29:43.653Z,31.30
2022-11-29T16:32:20.243Z,30.70
2022-11-29T16:34:47.144Z,30.33
2022-11-29T16:37:18.092Z,31.40
2022-11-29T16:39:46.772Z,34.67
2022-11-29T16:42:20.627Z,35.45
2022-11-29T16:45:02.837Z,33.13
2022-11-29T16:47:30.730Z,32.08
2022-11-29T16:50:13.145Z,33.08
2022-11-29T16:52:40.931Z,34.63
2022-11-29T16:55:08.251Z,34.53
2022-11-29T16:57:35.749Z,32.88
2022-11-29T17:00:08.967Z,33.38
2022-11-29T17:02:35.410Z,34.60
2022-11-29T17:05:01.821Z,33.78
2022-11-29T17:07:30.929Z,33.92
2022-11-29T17:09:59.538Z,35.78
2022-11-29T17:12:26.026Z,35.40
2022-11-29T17:14:52.428Z,33.35
2022-11-29T17:17:19.363Z,37.10
2022-11-29T17:19:45.823Z,35.10
2022-11-29T17:22:12.559Z,35.47
2022-11-29T17:24:42.328Z,37.65
2022-11-29T17:29:40.418Z,34.78
2022-11-29T17:32:06.904Z,34.17
2022-11-29T17:34:33.462Z,38.60
2022-11-29T17:36:59.926Z,36.53
2022-11-29T17:39:26.415Z,36.35
2022-11-29T17:41:52.875Z,36.20
2022-11-29T17:44:20.639Z,37.33
2022-11-29T17:46:47.063Z,36.38
2022-11-29T17:49:13.488Z,38.17
2022-11-29T17:51:51.639Z,36.63
2022-11-29T17:54:18.476Z,37.67
2022-11-29T17:56:45.151Z,37.05
2022-11-29T17:59:11.602Z,38.05
2022-11-29T18:01:39.526Z,37.92
2022-11-29T18:04:06.712Z,38.85
2022-11-29T18:06:35.458Z,39.50
2022-11-29T18:09:03.578Z,39.17
2022-11-29T18:11:37.515Z,37.10
2022-11-29T18:14:10.755Z,36.75
2022-11-29T18:16:38.657Z,38.15
2022-11-29T18:19:07.500Z,37.55
2022-11-29T18:21:34.733Z,38.78
2022-11-29T18:24:03.173Z,39.03
2022-11-29T18:26:30.827Z,38.42
2022-11-29T18:28:58.769Z,38.83
2022-11-29T18:31:28.164Z,39.80
2022-11-29T18:33:58.054Z,39.67
2022-11-29T18:36:27.877Z,38.58
2022-11-29T18:38:56.373Z,39.30
2022-11-29T18:41:23.470Z,40.58
2022-11-29T18:43:56.828Z,40.83
2022-11-29T18:46:23.785Z,38.10
2022-11-29T18:48:50.297Z,38.72
2022-11-29T18:51:20.069Z,39.83
2022-11-29T18:53:46.810Z,40.42
2022-11-29T18:56:15.509Z,41.00
2022-11-29T18:58:42.447Z,37.42
2022-11-29T19:01:10.543Z,42.50
2022-11-29T19:03:38.468Z,41.30
2022-11-29T19:06:06.739Z,44.20
2022-11-29T19:08:34.630Z,41.03
2022-11-29T19:11:04.373Z,41.80
2022-11-29T19:13:30.825Z,40.70
2022-11-29T19:15:57.299Z,41.38
2022-11-29T19:18:23.769Z,41.17
2022-11-29T19:20:50.535Z,41.70
2022-11-29T19:23:16.963Z,42.00
2022-11-29T19:25:44.717Z,40.33
2022-11-29T19:28:14.088Z,41.78
2022-11-29T19:30:41.008Z,41.55
2022-11-29T19:33:07.463Z,42.67
2022-11-29T19:35:34.797Z,41.58
2022-11-29T19:38:01.224Z,38.80
2022-11-29T19:40:27.626Z,40.25
2022-11-29T19:42:55.397Z,40.10
2022-11-29T19:45:22.115Z,41.85
2022-11-29T19:47:48.529Z,41.22
2022-11-29T19:50:15.183Z,41.80
2022-11-29T19:52:41.634Z,41.38
2022-11-29T19:55:08.936Z,40.70
2022-11-29T19:57:35.353Z,39.60
2022-11-29T20:00:03.645Z,43.83
2022-11-29T20:02:30.117Z,40.25
2022-11-29T20:04:56.767Z,39.95
2022-11-29T20:07:23.395Z,43.67
2022-11-29T20:09:49.844Z,41.50
2022-11-29T20:12:16.330Z,38.90
2022-11-29T20:14:42.767Z,40.90
2022-11-29T20:17:10.511Z,39.25
2022-11-29T20:19:36.956Z,41.47
2022-11-29T20:22:03.464Z,38.08
2022-11-29T20:24:34.885Z,41.22
2022-11-29T20:27:04.878Z,42.15
2022-11-29T20:29:31.325Z,41.30
2022-11-29T20:31:57.891Z,40.03
2022-11-29T20:34:26.138Z,42.17
2022-11-29T20:37:29.956Z,39.33
2022-11-29T20:39:59.936Z,40.27
2022-11-29T20:42:46.646Z,36.70
2022-11-29T20:45:14.715Z,41.20
2022-11-29T20:47:48.558Z,40.28
2022-11-29T20:52:58.183Z,38.17
2022-11-29T20:55:24.817Z,38.90
2022-11-29T20:57:51.342Z,39.72
2022-11-29T21:00:18.333Z,39.97
2022-11-29T21:02:44.785Z,39.75
2022-11-29T21:05:11.234Z,40.33
2022-11-29T21:07:39.023Z,40.03
2022-11-29T21:10:06.883Z,40.97
2022-11-29T21:12:33.845Z,43.17
2022-11-29T21:15:00.775Z,43.92
2022-11-29T21:17:33.356Z,41.70
2022-11-29T21:20:00.769Z,41.78
2022-11-29T21:22:37.687Z,44.33
2022-11-29T21:25:15.075Z,44.13
2022-11-29T21:27:42.113Z,48.00
2022-11-29T21:30:18.021Z,43.95
2022-11-29T21:32:45.199Z,45.58
2022-11-29T21:35:11.850Z,42.63
2022-11-29T21:37:38.652Z,46.47
2022-11-29T21:40:08.323Z,45.13
2022-11-29T21:42:34.880Z,45.03
2022-11-29T21:45:01.571Z,45.47
2022-11-29T21:47:28.013Z,45.40
2022-11-29T21:49:54.410Z,44.90
2022-11-29T21:52:22.864Z,46.05
2022-11-29T21:54:49.770Z,44.05
2022-11-29T21:57:17.531Z,48.20
2022-11-29T21:59:43.953Z,43.75
2022-11-29T22:02:10.526Z,42.25
2022-11-29T22:04:37.035Z,41.22
2022-11-29T22:07:03.442Z,42.13
2022-11-29T22:09:29.838Z,39.55
2022-11-29T22:11:56.376Z,38.80
2022-11-29T22:14:24.273Z,38.67
2022-11-29T22:16:52.474Z,37.00
2022-11-29T22:19:20.565Z,37.15
2022-11-29T22:21:49.266Z,37.67
2022-11-29T22:24:17.217Z,39.63
2022-11-29T22:26:44.114Z,38.03
2022-11-29T22:29:10.818Z,40.13
2022-11-29T22:31:38.898Z,42.67
2022-11-29T22:34:05.388Z,39.22
2022-11-29T22:36:32.123Z,39.22
2022-11-29T22:38:58.702Z,36.50
2022-11-29T22:41:25.261Z,37.92
2022-11-29T22:43:51.728Z,38.08
2022-11-29T22:46:20.159Z,36.60
2022-11-29T22:48:49.493Z,32.83
2022-11-29T22:51:17.894Z,37.78
2022-11-29T22:53:49.232Z,34.40
2022-11-29T22:56:17.027Z,35.55
2022-11-29T22:58:43.671Z,32.00
2022-11-29T23:01:12.330Z,32.58
2022-11-29T23:03:42.265Z,32.65
2022-11-29T23:06:12.258Z,32.28
2022-11-29T23:08:39.921Z,32.60
2022-11-29T23:11:08.578Z,31.92
2022-11-29T23:13:36.771Z,32.30
2022-11-29T23:16:05.382Z,31.98
2022-11-29T23:18:32.302Z,32.60
2022-11-29T23:21:02.006Z,31.80
2022-11-29T23:23:30.363Z,33.08
2022-11-29T23:25:57.128Z,30.60
2022-11-29T23:28:23.997Z,33.25
2022-11-29T23:30:50.633Z,30.80
2022-11-29T23:33:17.278Z,33.33
2022-11-29T23:35:43.862Z,35.33
2022-11-29T23:38:10.279Z,32.75
2022-11-29T23:40:38.020Z,31.42
2022-11-29T23:43:04.444Z,33.72
2022-11-29T23:45:30.929Z,31.17
2022-11-29T23:47:57.693Z,32.80
2022-11-29T23:50:24.531Z,34.50
2022-11-29T23:52:55.203Z,33.67
2022-11-29T23:55:22.731Z,34.42
2022-11-29T23:57:51.210Z,35.58
